TimePDT,TemperatureF,Dew PointF,Humidity,Sea Level PressureIn,VisibilityMPH,Wind Direction,Wind SpeedMPH,Gust SpeedMPH,PrecipitationIn,Events,Conditions,WindDirDegrees,DateUTC
12:15 AM,40.6,30.7,68,30.19,10.0,NNW,9.2,-,N/A,,Mostly Cloudy,330,2013-04-22 07:15:00
12:35 AM,40.5,32.7,74,30.20,10.0,NNW,13.8,17.3,N/A,,Mostly Cloudy,340,2013-04-22 07:35:00
12:55 AM,38.3,32.4,79,30.21,10.0,WNW,6.9,-,N/A,,Overcast,300,2013-04-22 07:55:00
1:15 AM,38.3,32.0,78,30.22,10.0,West,3.5,-,N/A,,Overcast,280,2013-04-22 08:15:00
1:35 AM,38.3,31.6,77,30.22,10.0,WSW,3.5,-,N/A,,Overcast,240,2013-04-22 08:35:00
1:55 AM,38.3,31.1,75,30.22,10.0,West,4.6,-,N/A,,Overcast,260,2013-04-22 08:55:00
2:15 AM,38.3,29.8,72,30.22,10.0,WNW,5.8,-,N/A,,Overcast,290,2013-04-22 09:15:00
2:35 AM,37.9,29.7,72,30.22,10.0,WNW,3.5,-,N/A,,Overcast,290,2013-04-22 09:35:00
2:55 AM,37.8,30.0,74,30.22,10.0,NNW,3.5,-,N/A,,Overcast,340,2013-04-22 09:55:00
3:15 AM,37.6,30.4,75,30.23,10.0,Calm,Calm,-,N/A,,Overcast,0,2013-04-22 10:15:00
3:35 AM,37.8,29.8,73,30.23,10.0,Calm,Calm,-,N/A,,Overcast,0,2013-04-22 10:35:00
3:55 AM,37.9,30.2,74,30.24,10.0,NW,4.6,-,N/A,,Overcast,320,2013-04-22 10:55:00
4:15 AM,38.3,29.8,72,30.24,10.0,NW,4.6,-,N/A,,Overcast,320,2013-04-22 11:15:00
4:35 AM,37.4,31.3,79,30.25,7.0,NNE,13.8,-,N/A,,Overcast,20,2013-04-22 11:35:00
4:55 AM,35.1,32.0,89,30.26,10.0,Calm,Calm,-,N/A,,Overcast,0,2013-04-22 11:55:00
5:15 AM,35.4,32.0,87,30.27,10.0,North,4.6,-,N/A,,Overcast,10,2013-04-22 12:15:00
5:35 AM,34.9,30.2,83,30.27,10.0,North,4.6,-,N/A,,Mostly Cloudy,350,2013-04-22 12:35:00
5:55 AM,34.3,30.0,84,30.28,10.0,NE,4.6,-,N/A,,Mostly Cloudy,40,2013-04-22 12:55:00
6:15 AM,34.7,28.4,78,30.30,10.0,North,8.1,-,N/A,,Mostly Cloudy,10,2013-04-22 13:15:00
6:35 AM,35.6,27.5,72,30.30,10.0,North,6.9,-,N/A,,Overcast,360,2013-04-22 13:35:00
6:55 AM,36.3,27.1,69,30.31,10.0,North,6.9,-,N/A,,Mostly Cloudy,360,2013-04-22 13:55:00
8:55 AM,41.0,27.0,57,30.34,-9999.0,North,5.8,-,N/A,,Unknown,350,2013-04-22 15:55:00
9:35 AM,-9999,-9999,N/A,30.34,-9999.0,NW,8.1,-,N/A,,Unknown,320,2013-04-22 16:35:00
9:55 AM,42.4,26.1,52,30.34,10.0,North,4.6,-,N/A,,Clear,350,2013-04-22 16:55:00
10:15 AM,43.2,25.7,50,30.34,10.0,North,8.1,-,N/A,,Scattered Clouds,10,2013-04-22 17:15:00
10:35 AM,45.3,24.4,44,30.34,10.0,North,10.4,17.3,N/A,,Scattered Clouds,10,2013-04-22 17:35:00
10:55 AM,45.9,20.8,37,30.34,10.0,North,16.1,20.7,N/A,,Scattered Clouds,350,2013-04-22 17:55:00
11:15 AM,45.0,19.4,36,30.34,10.0,North,12.7,17.3,N/A,,Scattered Clouds,360,2013-04-22 18:15:00
11:35 AM,46.4,18.5,33,30.34,10.0,NNE,13.8,19.6,N/A,,Scattered Clouds,20,2013-04-22 18:35:00
11:55 AM,47.7,20.1,34,30.34,10.0,North,12.7,18.4,N/A,,Mostly Cloudy,10,2013-04-22 18:55:00
12:15 PM,49.1,19.2,31,30.33,10.0,NW,13.8,20.7,N/A,,Mostly Cloudy,320,2013-04-22 19:15:00
12:35 PM,48.6,19.9,32,30.33,10.0,NNW,12.7,-,N/A,,Scattered Clouds,340,2013-04-22 19:35:00
12:55 PM,49.3,21.2,33,30.32,10.0,NNW,11.5,19.6,N/A,,Scattered Clouds,330,2013-04-22 19:55:00
1:15 PM,49.8,21.6,33,30.32,10.0,NNW,10.4,17.3,N/A,,Scattered Clouds,340,2013-04-22 20:15:00
1:35 PM,49.6,21.0,32,30.32,10.0,North,15.0,20.7,N/A,,Scattered Clouds,360,2013-04-22 20:35:00
1:55 PM,50.2,20.5,31,30.32,10.0,North,13.8,-,N/A,,Scattered Clouds,360,2013-04-22 20:55:00
2:15 PM,50.9,21.0,31,30.32,10.0,NW,9.2,20.7,N/A,,Scattered Clouds,320,2013-04-22 21:15:00
2:35 PM,50.5,21.4,32,30.32,10.0,NW,15.0,19.6,N/A,,Scattered Clouds,320,2013-04-22 21:35:00
2:55 PM,50.5,19.8,30,30.32,10.0,NW,10.4,20.7,N/A,,Clear,320,2013-04-22 21:55:00
3:15 PM,50.0,19.4,30,30.31,10.0,NW,12.7,17.3,N/A,,Clear,310,2013-04-22 22:15:00
3:35 PM,51.8,21.4,30,30.31,10.0,North,13.8,19.6,N/A,,Clear,350,2013-04-22 22:35:00
3:55 PM,50.7,19.8,30,30.30,10.0,NW,11.5,-,N/A,,Clear,320,2013-04-22 22:55:00
4:15 PM,51.3,20.3,30,30.30,10.0,NNW,12.7,20.7,N/A,,Clear,340,2013-04-22 23:15:00
4:35 PM,50.5,20.3,30,30.30,10.0,North,11.5,18.4,N/A,,Clear,360,2013-04-22 23:35:00
4:55 PM,50.7,19.6,29,30.30,10.0,NNW,13.8,-,N/A,,Clear,330,2013-04-22 23:55:00
5:15 PM,50.5,19.9,30,30.30,10.0,NNW,13.8,17.3,N/A,,Clear,340,2013-04-23 00:15:00
5:35 PM,49.5,18.7,30,30.30,10.0,NNW,12.7,-,N/A,,Clear,340,2013-04-23 00:35:00
5:55 PM,49.3,18.5,30,30.30,10.0,NNW,13.8,17.3,N/A,,Clear,330,2013-04-23 00:55:00
6:15 PM,48.7,18.5,30,30.31,10.0,North,13.8,17.3,N/A,,Clear,350,2013-04-23 01:15:00
6:35 PM,47.7,18.3,31,30.32,10.0,NNW,11.5,-,N/A,,Clear,340,2013-04-23 01:35:00
6:55 PM,46.0,18.7,34,30.32,10.0,NNW,13.8,18.4,N/A,,Clear,340,2013-04-23 01:55:00
7:15 PM,44.8,19.2,36,30.32,10.0,NNW,9.2,-,N/A,,Clear,330,2013-04-23 02:15:00
7:35 PM,43.3,19.8,39,30.32,10.0,NNW,8.1,-,N/A,,Clear,330,2013-04-23 02:35:00
7:55 PM,41.4,19.4,41,30.33,10.0,WNW,5.8,-,N/A,,Clear,290,2013-04-23 02:55:00
8:15 PM,40.8,19.6,43,30.34,10.0,WNW,10.4,-,N/A,,Clear,290,2013-04-23 03:15:00
8:35 PM,41.0,19.4,42,30.35,10.0,NNW,8.1,-,N/A,,Clear,340,2013-04-23 03:35:00
8:55 PM,40.1,18.9,43,30.35,10.0,NNW,3.5,-,N/A,,Clear,330,2013-04-23 03:55:00
9:15 PM,39.4,18.7,43,30.36,10.0,NNW,3.5,-,N/A,,Clear,340,2013-04-23 04:15:00
9:35 PM,39.2,18.7,44,30.36,10.0,NNW,5.8,-,N/A,,Clear,340,2013-04-23 04:35:00
9:55 PM,37.8,19.2,47,30.36,10.0,North,4.6,-,N/A,,Clear,360,2013-04-23 04:55:00
10:15 PM,36.9,19.2,49,30.36,10.0,NNW,6.9,-,N/A,,Clear,340,2013-04-23 05:15:00
10:35 PM,35.8,19.4,51,30.36,10.0,NNW,6.9,-,N/A,,Clear,330,2013-04-23 05:35:00
10:55 PM,34.7,19.4,54,30.36,10.0,NNW,5.8,-,N/A,,Clear,330,2013-04-23 05:55:00
11:15 PM,34.9,19.4,53,30.35,10.0,NW,4.6,-,N/A,,Clear,320,2013-04-23 06:15:00
11:35 PM,34.9,19.4,53,30.35,10.0,NW,4.6,-,N/A,,Clear,320,2013-04-23 06:35:00
11:55 PM,35.4,19.8,53,30.35,10.0,NW,3.5,-,N/A,,Clear,320,2013-04-23 06:55:00